Time;durP1;ratioP1;P1;durP2;ratioP2;P2;SDS_P1;SDS_P2;PMS_P1;PMS_P2;Temp;Humidity;BMP_temperature;BMP_pressure;BME280_temperature;BME280_humidity;BME280_pressure;Samples;Min_cycle;Max_cycle;Signal;HPM_P1;HPM_P2
2022/07/13 00:01:25;;;;;;;9.63;6.88;;;19.90;99.90;;;;;;4973334;28;20073;-77
2022/07/13 00:03:52;;;;;;;9.07;7.15;;;19.80;99.90;;;;;;4969096;28;20042;-77
2022/07/13 00:06:18;;;;;;;9.98;7.30;;;19.70;99.90;;;;;;4972502;28;20550;-77
2022/07/13 00:08:44;;;;;;;15.65;7.97;;;19.70;99.90;;;;;;4990024;28;20050;-77
2022/07/13 00:11:10;;;;;;;8.75;7.80;;;19.70;99.90;;;;;;4989964;28;20133;-77
2022/07/13 00:13:36;;;;;;;8.45;7.70;;;19.60;99.90;;;;;;4984845;28;20134;-76
2022/07/13 00:16:02;;;;;;;9.48;6.40;;;19.60;99.90;;;;;;4990771;28;20085;-77
2022/07/13 00:18:27;;;;;;;8.60;6.40;;;19.60;99.90;;;;;;4991883;28;20137;-77
2022/07/13 00:20:54;;;;;;;7.18;6.68;;;19.60;99.90;;;;;;4999700;28;20045;-77
2022/07/13 00:23:20;;;;;;;6.32;5.93;;;19.60;99.90;;;;;;4981956;28;20407;-76
2022/07/13 00:25:47;;;;;;;7.60;6.82;;;19.60;99.90;;;;;;5000366;28;20054;-76
2022/07/13 00:28:13;;;;;;;10.05;6.85;;;19.60;99.90;;;;;;4998144;28;20575;-77
2022/07/13 00:30:38;;;;;;;6.50;6.03;;;19.60;99.90;;;;;;4987362;28;20057;-76
2022/07/13 00:33:05;;;;;;;9.43;6.80;;;19.60;99.90;;;;;;4967685;28;20407;-75
2022/07/13 00:35:31;;;;;;;7.00;6.50;;;19.60;99.90;;;;;;4992173;28;20058;-76
2022/07/13 00:37:56;;;;;;;6.90;6.38;;;19.60;99.90;;;;;;4983732;28;20058;-75
2022/07/13 00:40:22;;;;;;;9.27;8.48;;;19.60;99.90;;;;;;4956244;28;20046;-77
2022/07/13 00:42:48;;;;;;;7.97;7.32;;;19.60;99.90;;;;;;4982401;28;20105;-77
2022/07/13 00:45:14;;;;;;;11.38;9.05;;;19.60;99.90;;;;;;4987772;28;20053;-77
2022/07/13 00:47:41;;;;;;;9.05;7.32;;;19.60;99.90;;;;;;4968740;28;20605;-77
2022/07/13 00:50:09;;;;;;;8.40;7.63;;;19.60;99.90;;;;;;4985726;28;20078;-77
2022/07/13 00:52:35;;;;;;;8.70;8.00;;;19.60;99.90;;;;;;4972140;28;20057;-77
2022/07/13 00:55:03;;;;;;;9.38;8.50;;;19.60;99.90;;;;;;4987741;28;20143;-77
2022/07/13 00:57:33;;;;;;;9.77;8.98;;;19.60;99.90;;;;;;4971244;28;20061;-77
2022/07/13 00:59:59;;;;;;;9.38;8.48;;;19.50;99.90;;;;;;4972046;28;20129;-77
2022/07/13 01:02:25;;;;;;;9.65;8.77;;;19.60;99.90;;;;;;4989452;28;20046;-76
2022/07/13 01:04:50;;;;;;;11.38;10.25;;;19.50;99.90;;;;;;4968615;28;20125;-76
2022/07/13 01:07:16;;;;;;;9.85;9.05;;;19.60;99.90;;;;;;4987954;28;20043;-77
2022/07/13 01:09:42;;;;;;;9.60;8.80;;;19.60;99.90;;;;;;4983677;28;20504;-75
2022/07/13 01:12:08;;;;;;;11.23;10.32;;;19.60;99.90;;;;;;4971214;28;20046;-76
2022/07/13 01:14:35;;;;;;;10.32;9.32;;;19.60;99.90;;;;;;4986811;28;20050;-76
2022/07/13 01:17:01;;;;;;;9.85;8.93;;;19.60;99.90;;;;;;4971277;28;20081;-76
2022/07/13 01:19:28;;;;;;;10.98;9.95;;;19.50;99.90;;;;;;4981595;28;20054;-76
2022/07/13 01:22:00;;;;;;;11.93;10.93;;;19.50;99.90;;;;;;4977361;28;20059;-76
2022/07/13 01:24:28;;;;;;;12.40;11.30;;;19.60;99.90;;;;;;4969706;28;20050;-76
2022/07/13 01:26:54;;;;;;;11.27;10.38;;;19.50;99.90;;;;;;4980383;28;20042;-76
2022/07/13 01:29:20;;;;;;;10.30;8.93;;;19.50;99.90;;;;;;4970337;28;20049;-77
2022/07/13 01:31:45;;;;;;;12.48;11.27;;;19.60;99.90;;;;;;4987986;28;20058;-77
2022/07/13 01:34:11;;;;;;;13.88;12.70;;;19.60;99.90;;;;;;4986518;28;20056;-76
2022/07/13 01:36:37;;;;;;;11.98;10.93;;;19.50;99.90;;;;;;4987087;28;20131;-75
2022/07/13 01:39:04;;;;;;;11.73;10.60;;;19.60;99.90;;;;;;4970483;28;20047;-76
2022/07/13 01:41:30;;;;;;;13.82;12.38;;;19.50;99.90;;;;;;4966754;28;20042;-75
2022/07/13 01:43:57;;;;;;;14.48;13.02;;;19.50;99.90;;;;;;4983660;28;20061;-75
2022/07/13 01:46:24;;;;;;;17.25;14.93;;;19.50;99.90;;;;;;4969756;28;20069;-76
2022/07/13 01:48:50;;;;;;;17.05;15.32;;;19.50;99.90;;;;;;4969358;28;20055;-76
2022/07/13 01:51:16;;;;;;;16.55;14.93;;;19.50;99.90;;;;;;4963950;28;20051;-75
2022/07/13 01:53:41;;;;;;;17.17;15.48;;;19.50;99.90;;;;;;4965031;28;20049;-76
2022/07/13 01:56:07;;;;;;;19.25;15.65;;;19.60;99.90;;;;;;4960424;28;20073;-77
2022/07/13 01:58:33;;;;;;;16.80;14.75;;;19.60;99.90;;;;;;4969141;28;20400;-76
2022/07/13 02:00:58;;;;;;;18.90;16.77;;;19.60;99.90;;;;;;4965600;28;20109;-76
2022/07/13 02:03:28;;;;;;;18.30;15.93;;;19.60;99.90;;;;;;4970198;28;20572;-75
2022/07/13 02:05:53;;;;;;;20.20;17.13;;;19.70;99.90;;;;;;4967584;28;20049;-75
2022/07/13 02:08:20;;;;;;;20.30;15.65;;;19.70;99.90;;;;;;4967256;28;20047;-75
2022/07/13 02:10:46;;;;;;;21.02;18.83;;;19.70;99.90;;;;;;4967878;28;20599;-76
2022/07/13 02:13:13;;;;;;;19.40;17.40;;;19.70;99.90;;;;;;4956996;28;20149;-75
2022/07/13 02:15:39;;;;;;;24.52;16.40;;;19.70;99.90;;;;;;4969385;28;20031;-76
2022/07/13 02:18:06;;;;;;;19.38;17.00;;;19.70;99.90;;;;;;4967235;28;20582;-76
2022/07/13 02:20:34;;;;;;;18.75;16.85;;;19.70;99.90;;;;;;4968407;28;20122;-75
2022/07/13 02:23:00;;;;;;;17.13;15.43;;;19.70;99.90;;;;;;4967935;28;20058;-75
2022/07/13 02:25:25;;;;;;;19.13;15.65;;;19.70;99.90;;;;;;4968237;28;20463;-76
2022/07/13 02:27:51;;;;;;;20.65;16.83;;;19.70;99.90;;;;;;4961597;28;20764;-75
2022/07/13 02:30:17;;;;;;;18.48;16.30;;;19.70;99.90;;;;;;4964625;28;20907;-76
2022/07/13 02:32:44;;;;;;;17.48;15.82;;;19.70;99.90;;;;;;4966665;28;20113;-76
2022/07/13 02:35:10;;;;;;;17.17;15.40;;;19.70;99.90;;;;;;4966759;28;20049;-76
2022/07/13 02:37:36;;;;;;;19.65;15.20;;;19.70;99.90;;;;;;4973789;28;20526;-76
2022/07/13 02:40:05;;;;;;;21.27;17.95;;;19.70;99.90;;;;;;4982339;28;20047;-76
2022/07/13 02:42:30;;;;;;;17.65;15.82;;;19.70;99.90;;;;;;4991026;28;20415;-75
2022/07/13 02:44:56;;;;;;;19.33;16.55;;;19.70;99.90;;;;;;4991693;28;20049;-76
2022/07/13 02:47:23;;;;;;;16.65;14.95;;;19.70;99.90;;;;;;4994830;28;20380;-76
2022/07/13 02:49:49;;;;;;;18.45;16.40;;;19.80;99.90;;;;;;4994362;28;20045;-76
2022/07/13 02:52:15;;;;;;;16.92;15.18;;;19.70;99.90;;;;;;4975101;28;20046;-74
2022/07/13 02:54:42;;;;;;;21.55;15.77;;;19.70;99.90;;;;;;4973819;28;20046;-76
2022/07/13 02:57:08;;;;;;;17.37;15.50;;;19.80;99.90;;;;;;4970643;28;20090;-76
2022/07/13 02:59:36;;;;;;;17.70;15.90;;;19.80;99.90;;;;;;4959972;28;20126;-76
2022/07/13 03:02:02;;;;;;;22.92;16.63;;;19.80;99.90;;;;;;4992988;28;20698;-76
2022/07/13 03:04:31;;;;;;;16.88;15.27;;;19.70;99.90;;;;;;4983435;28;20530;-75
2022/07/13 03:06:56;;;;;;;16.05;14.50;;;19.80;99.90;;;;;;4989598;28;20057;-75
2022/07/13 03:09:22;;;;;;;16.30;14.70;;;19.70;99.90;;;;;;4989107;28;20419;-76
2022/07/13 03:11:50;;;;;;;15.88;14.20;;;19.70;99.90;;;;;;4985803;28;20128;-76
2022/07/13 03:14:16;;;;;;;16.63;14.77;;;19.70;99.90;;;;;;4974790;28;20305;-75
2022/07/13 03:16:42;;;;;;;17.27;14.10;;;19.70;99.90;;;;;;4973994;28;20608;-76
2022/07/13 03:19:09;;;;;;;18.67;14.15;;;19.70;99.90;;;;;;4990754;28;20452;-76
2022/07/13 03:21:37;;;;;;;17.58;15.88;;;19.70;99.90;;;;;;4976743;28;20610;-76
2022/07/13 03:24:03;;;;;;;18.38;14.52;;;19.70;99.90;;;;;;4987123;28;20488;-76
2022/07/13 03:26:30;;;;;;;15.32;13.77;;;19.70;99.90;;;;;;4972540;28;20088;-75
2022/07/13 03:28:56;;;;;;;16.17;14.48;;;19.70;99.90;;;;;;4973591;28;20050;-76
2022/07/13 03:31:22;;;;;;;18.23;15.15;;;19.70;99.90;;;;;;4990911;28;20503;-76
2022/07/13 03:33:48;;;;;;;14.43;12.93;;;19.70;99.90;;;;;;4991291;28;20073;-75
2022/07/13 03:36:14;;;;;;;15.77;14.07;;;19.70;99.90;;;;;;4974226;28;20077;-75
2022/07/13 03:38:40;;;;;;;23.65;14.70;;;19.60;99.90;;;;;;4990691;28;20469;-76
2022/07/13 03:41:07;;;;;;;15.48;13.88;;;19.70;99.90;;;;;;4983042;28;20085;-76
2022/07/13 03:43:34;;;;;;;15.15;13.48;;;19.60;99.90;;;;;;4972137;28;20553;-75
2022/07/13 03:45:59;;;;;;;13.02;11.80;;;19.60;99.90;;;;;;4975211;28;20411;-75
2022/07/13 03:48:25;;;;;;;14.18;12.73;;;19.60;99.90;;;;;;4989424;28;20046;-76
2022/07/13 03:50:56;;;;;;;14.30;12.90;;;19.60;99.90;;;;;;4970223;28;20053;-75
2022/07/13 03:53:21;;;;;;;14.02;12.63;;;19.60;99.90;;;;;;4973645;28;20133;-76
2022/07/13 03:55:47;;;;;;;13.35;12.05;;;19.60;99.90;;;;;;4972356;28;20470;-76
2022/07/13 03:58:13;;;;;;;14.43;12.88;;;19.60;99.90;;;;;;4988552;28;20082;-76
2022/07/13 04:00:38;;;;;;;12.30;11.15;;;19.60;99.90;;;;;;4975177;28;20046;-75
2022/07/13 04:03:04;;;;;;;17.98;13.70;;;19.60;99.90;;;;;;4987651;28;20042;-76
2022/07/13 04:05:30;;;;;;;16.20;13.55;;;19.60;99.90;;;;;;4990983;28;20590;-76
2022/07/13 04:07:59;;;;;;;14.52;12.95;;;19.60;99.90;;;;;;4983620;28;20050;-76
2022/07/13 04:10:24;;;;;;;13.70;12.23;;;19.60;99.90;;;;;;4990534;28;20452;-75
2022/07/13 04:12:51;;;;;;;14.35;12.30;;;19.60;99.90;;;;;;4968630;28;20042;-75
2022/07/13 04:15:17;;;;;;;17.73;13.40;;;19.60;99.90;;;;;;4987447;28;20050;-75
2022/07/13 04:17:44;;;;;;;15.50;13.50;;;19.60;99.90;;;;;;4989922;28;20065;-75
2022/07/13 04:20:10;;;;;;;15.15;13.07;;;19.60;99.90;;;;;;4974587;28;20057;-74
2022/07/13 04:22:36;;;;;;;17.13;13.65;;;19.60;99.90;;;;;;4990344;28;20093;-77
2022/07/13 04:25:03;;;;;;;18.67;14.73;;;19.60;99.90;;;;;;4990002;28;20058;-76
2022/07/13 04:27:29;;;;;;;16.92;15.23;;;19.60;99.90;;;;;;4990779;28;20054;-76
2022/07/13 04:29:55;;;;;;;15.80;14.20;;;19.60;99.90;;;;;;4989229;28;20093;-77
2022/07/13 04:32:20;;;;;;;14.95;13.40;;;19.60;99.90;;;;;;4989878;28;20053;-76
2022/07/13 04:34:46;;;;;;;15.65;13.40;;;19.70;99.90;;;;;;4982800;28;20773;-75
2022/07/13 04:37:11;;;;;;;13.00;11.70;;;19.70;99.90;;;;;;4969764;28;20494;-74
2022/07/13 04:39:40;;;;;;;15.93;13.27;;;19.70;99.90;;;;;;4969934;28;20050;-75
2022/07/13 04:42:06;;;;;;;15.25;12.10;;;19.70;99.90;;;;;;4968973;28;20141;-76
2022/07/13 04:44:32;;;;;;;15.20;13.60;;;19.70;99.90;;;;;;4989586;28;20129;-76
2022/07/13 04:46:58;;;;;;;14.25;12.80;;;19.70;99.90;;;;;;4971787;28;20130;-77
2022/07/13 04:49:24;;;;;;;16.65;12.30;;;19.70;99.90;;;;;;4972453;28;20043;-77
2022/07/13 04:51:50;;;;;;;16.13;14.38;;;19.80;99.90;;;;;;4964590;28;20050;-76
2022/07/13 04:54:20;;;;;;;14.45;12.95;;;19.80;99.90;;;;;;4984739;28;20467;-77
2022/07/13 04:56:46;;;;;;;14.40;12.25;;;19.80;99.90;;;;;;4965269;28;20838;-76
2022/07/13 04:59:12;;;;;;;15.57;13.10;;;19.80;99.90;;;;;;4988061;28;20050;-77
2022/07/13 05:01:39;;;;;;;19.05;11.80;;;19.80;99.90;;;;;;4965895;28;20053;-77
2022/07/13 05:04:06;;;;;;;13.45;12.18;;;19.90;99.90;;;;;;4966566;28;20054;-77
2022/07/13 05:06:43;;;;;;;;;;;19.90;99.90;;;;;;4990252;28;20394;-77
2022/07/13 05:09:09;;;;;;;19.20;13.15;;;19.90;99.90;;;;;;4990757;28;20346;-77
2022/07/13 05:11:35;;;;;;;17.52;14.35;;;19.90;99.90;;;;;;4967816;28;20042;-77
2022/07/13 05:14:02;;;;;;;14.85;12.70;;;19.90;99.90;;;;;;4969902;28;20050;-77
2022/07/13 05:16:27;;;;;;;16.13;14.45;;;20.00;99.90;;;;;;4976044;28;20086;-77
2022/07/13 05:18:56;;;;;;;15.52;13.98;;;20.00;99.90;;;;;;4989208;28;20081;-74
2022/07/13 05:21:21;;;;;;;20.45;14.63;;;20.00;99.90;;;;;;4970775;28;20046;-74
2022/07/13 05:23:47;;;;;;;14.65;13.13;;;20.00;99.90;;;;;;4986269;28;20052;-75
2022/07/13 05:26:13;;;;;;;16.30;12.95;;;20.00;99.90;;;;;;4989196;28;20092;-75
2022/07/13 05:28:38;;;;;;;14.10;12.43;;;20.10;99.90;;;;;;4988644;28;20072;-74
2022/07/13 05:31:04;;;;;;;16.48;12.70;;;20.10;99.90;;;;;;4971584;28;20497;-74
2022/07/13 05:33:30;;;;;;;14.02;12.63;;;20.10;99.90;;;;;;4987868;28;20149;-73
2022/07/13 05:35:56;;;;;;;21.42;13.77;;;20.10;99.90;;;;;;4988166;28;20061;-74
2022/07/13 05:38:21;;;;;;;13.43;12.07;;;20.20;99.90;;;;;;4977683;28;20126;-74
2022/07/13 05:40:47;;;;;;;14.82;13.23;;;20.20;99.90;;;;;;4971948;28;20043;-73
2022/07/13 05:43:13;;;;;;;15.05;12.50;;;20.30;99.90;;;;;;4955530;28;20508;-72
2022/07/13 05:45:39;;;;;;;16.13;12.65;;;20.30;99.90;;;;;;4952614;28;20050;-72
2022/07/13 05:48:05;;;;;;;12.68;11.40;;;20.30;99.90;;;;;;4973006;28;20050;-74
2022/07/13 05:50:30;;;;;;;12.98;11.70;;;20.40;99.90;;;;;;4972508;28;20507;-75
2022/07/13 05:52:56;;;;;;;17.35;11.57;;;20.40;99.90;;;;;;4971556;28;20045;-74
2022/07/13 05:55:22;;;;;;;12.45;11.32;;;20.50;99.90;;;;;;4973396;28;20752;-74
2022/07/13 05:57:49;;;;;;;17.58;11.32;;;20.60;99.90;;;;;;4969635;28;20054;-73
2022/07/13 06:00:16;;;;;;;14.00;11.60;;;20.60;99.90;;;;;;4962079;28;20051;-73
2022/07/13 06:02:42;;;;;;;31.00;12.57;;;20.70;99.90;;;;;;4943278;28;20042;-73
2022/07/13 06:05:09;;;;;;;15.63;11.32;;;20.70;99.90;;;;;;4939929;28;20051;-73
2022/07/13 06:07:35;;;;;;;18.10;11.35;;;20.80;99.90;;;;;;4947958;28;20054;-72
2022/07/13 06:10:01;;;;;;;18.17;10.95;;;20.90;99.90;;;;;;4942930;29;20090;-73
2022/07/13 06:12:27;;;;;;;14.18;10.40;;;20.90;99.90;;;;;;4948883;28;20443;-74
2022/07/13 06:14:54;;;;;;;11.20;10.10;;;21.00;99.90;;;;;;4949993;28;20056;-75
2022/07/13 06:17:20;;;;;;;12.27;10.60;;;21.10;99.90;;;;;;4966654;28;20531;-75
2022/07/13 06:19:46;;;;;;;13.15;10.20;;;21.20;99.90;;;;;;4965540;28;20536;-75
2022/07/13 06:22:15;;;;;;;10.60;9.70;;;21.20;99.90;;;;;;4963841;28;20221;-75
2022/07/13 06:24:41;;;;;;;11.18;9.35;;;21.40;99.90;;;;;;4964933;28;20053;-75
2022/07/13 06:27:08;;;;;;;12.52;9.77;;;21.40;99.90;;;;;;4965519;28;20075;-75
2022/07/13 06:29:34;;;;;;;23.27;10.32;;;21.50;99.90;;;;;;4955679;28;20039;-75
2022/07/13 06:32:01;;;;;;;10.80;9.07;;;21.60;99.90;;;;;;4965747;28;20047;-75
2022/07/13 06:34:27;;;;;;;12.32;10.35;;;21.70;99.90;;;;;;4973154;28;20038;-75
2022/07/13 06:36:53;;;;;;;11.98;10.88;;;21.70;99.90;;;;;;4982348;28;20051;-75
2022/07/13 06:39:18;;;;;;;18.58;11.77;;;21.90;99.90;;;;;;5004121;28;20107;-74
2022/07/13 06:41:45;;;;;;;11.20;10.07;;;21.90;99.90;;;;;;5003042;28;20073;-75
2022/07/13 06:44:11;;;;;;;11.48;10.27;;;22.00;99.90;;;;;;5003321;28;20053;-74
2022/07/13 06:46:38;;;;;;;22.33;10.75;;;22.20;99.90;;;;;;4997303;28;20062;-74
2022/07/13 06:49:04;;;;;;;25.40;11.15;;;22.40;99.90;;;;;;4996807;28;20070;-74
2022/07/13 06:51:29;;;;;;;55.38;12.05;;;22.60;99.90;;;;;;4997305;28;20042;-74
2022/07/13 08:07:44;;;;;;;11.80;9.35;;;25.00;99.90;;;;;;4434524;28;20092;-76
2022/07/13 08:10:12;;;;;;;11.82;10.35;;;25.40;99.90;;;;;;4974520;28;20145;-76
2022/07/13 08:12:38;;;;;;;11.75;10.57;;;25.80;99.90;;;;;;4991622;28;20042;-75
2022/07/13 08:15:07;;;;;;;10.93;9.88;;;26.00;99.90;;;;;;4985195;28;20101;-75
2022/07/13 08:17:34;;;;;;;10.45;9.45;;;26.20;99.90;;;;;;4987339;28;20555;-75
2022/07/13 08:20:00;;;;;;;13.85;10.63;;;26.30;99.90;;;;;;4984905;28;20079;-75
2022/07/13 08:22:26;;;;;;;12.75;10.07;;;26.40;99.90;;;;;;4973075;28;20090;-75
2022/07/13 08:24:51;;;;;;;12.73;11.32;;;26.50;99.90;;;;;;4990233;28;20053;-74
2022/07/13 08:27:17;;;;;;;11.50;9.63;;;26.70;99.90;;;;;;4972791;28;20069;-75
2022/07/13 08:29:42;;;;;;;9.18;8.25;;;26.90;99.90;;;;;;4989464;28;20046;-76
2022/07/13 08:32:08;;;;;;;10.40;9.05;;;27.20;99.90;;;;;;4989906;28;20054;-77
2022/07/13 08:40:08;;;;;;;12.80;9.88;;;27.70;99.90;;;;;;4972204;28;20046;-76
2022/07/13 08:42:34;;;;;;;10.25;9.35;;;27.80;99.90;;;;;;4987667;28;20125;-75
2022/07/13 08:45:01;;;;;;;11.80;9.67;;;28.00;99.90;;;;;;4989529;28;20085;-76
2022/07/13 08:47:29;;;;;;;14.18;10.07;;;28.10;99.90;;;;;;4971930;28;20058;-75
2022/07/13 08:50:01;;;;;;;12.00;10.63;;;28.20;99.90;;;;;;4981471;28;20038;-74
2022/07/13 08:52:28;;;;;;;16.23;10.50;;;28.30;99.90;;;;;;4984279;28;20089;-75
2022/07/13 08:54:54;;;;;;;;;;;28.50;99.90;;;;;;4981291;28;20146;-75
2022/07/13 08:57:20;;;;;;;15.00;10.43;;;28.40;96.40;;;;;;4983029;28;19944;-74
2022/07/13 08:59:46;;;;;;;11.48;10.05;;;28.40;99.90;;;;;;4988571;28;20046;-75
2022/07/13 09:02:12;;;;;;;9.27;8.38;;;28.70;99.90;;;;;;4982609;28;20121;-75
2022/07/13 09:04:39;;;;;;;10.13;9.23;;;28.90;99.90;;;;;;4985569;28;20443;-75
2022/07/13 09:07:11;;;;;;;15.23;10.07;;;29.10;95.80;;;;;;4978726;28;20059;-76
2022/07/13 09:09:38;;;;;;;10.88;9.82;;;29.20;99.60;;;;;;4969367;28;20526;-76
2022/07/13 09:12:17;;;;;;;9.57;8.68;;;29.40;96.60;;;;;;4963707;28;20078;-76
2022/07/13 09:14:48;;;;;;;9.20;8.38;;;29.50;91.60;;;;;;4966092;28;20562;-75
2022/07/13 09:17:30;;;;;;;13.05;9.35;;;29.50;96.20;;;;;;4967528;28;20047;-75
2022/07/13 09:19:56;;;;;;;11.77;9.35;;;29.60;94.30;;;;;;4947840;28;20439;-76
2022/07/13 09:22:22;;;;;;;9.45;8.38;;;29.70;96.50;;;;;;4958108;28;20413;-75
2022/07/13 09:24:50;;;;;;;11.27;10.25;;;29.90;96.20;;;;;;4968475;28;20042;-75
2022/07/13 09:27:16;;;;;;;11.27;10.05;;;30.00;92.70;;;;;;4948670;28;20471;-75
2022/07/13 09:29:43;;;;;;;9.77;8.68;;;30.00;89.70;;;;;;4959906;28;20042;-75
2022/07/13 09:32:11;;;;;;;11.00;9.85;;;30.10;91.90;;;;;;4965952;28;20117;-75
2022/07/13 09:34:57;;;;;;;11.13;9.60;;;30.10;92.80;;;;;;4953187;28;20050;-75
2022/07/13 09:37:26;;;;;;;12.35;10.20;;;30.20;89.10;;;;;;4961595;28;20043;-74
2022/07/13 09:40:18;;;;;;;13.65;9.95;;;30.20;92.40;;;;;;4944937;28;20110;-74
2022/07/13 09:46:08;;;;;;;12.35;11.02;;;30.30;84.90;;;;;;4956290;28;20054;-75
2022/07/13 09:48:22;;;;;;;12.07;9.13;;;30.40;91.20;;;;;;4967121;28;20047;-75
2022/07/13 09:50:52;;;;;;;15.35;9.73;;;30.70;89.20;;;;;;4953822;28;20060;-75
2022/07/13 09:53:30;;;;;;;10.80;9.43;;;30.50;78.20;;;;;;4971192;28;20087;-75
2022/07/13 09:55:59;;;;;;;9.73;8.82;;;30.40;77.40;;;;;;4971040;28;20050;-75
2022/07/13 09:58:37;;;;;;;9.15;8.38;;;30.50;80.60;;;;;;4972252;28;20051;-75
2022/07/13 10:01:03;;;;;;;9.18;8.30;;;30.70;79.90;;;;;;4971142;28;20105;-75
2022/07/13 10:03:30;;;;;;;8.73;7.93;;;30.80;83.50;;;;;;4972134;28;20045;-75
2022/07/13 10:05:57;;;;;;;9.95;8.98;;;30.90;75.00;;;;;;4962711;28;20361;-74
2022/07/13 10:08:23;;;;;;;;;;;31.00;76.00;;;;;;4991772;28;20053;-75
2022/07/13 10:10:49;;;;;;;8.77;7.20;;;31.30;70.90;;;;;;4989898;28;19981;-76
2022/07/13 10:13:16;;;;;;;8.75;7.95;;;31.40;78.40;;;;;;4991115;28;20157;-75
2022/07/13 10:15:43;;;;;;;7.47;6.78;;;31.50;72.30;;;;;;4988002;28;20038;-75
2022/07/13 10:18:12;;;;;;;16.13;8.65;;;31.40;71.80;;;;;;4984552;28;20042;-75
2022/07/13 10:20:42;;;;;;;7.90;6.57;;;31.40;68.50;;;;;;4969588;28;20070;-75
2022/07/13 10:23:08;;;;;;;8.38;7.57;;;31.40;68.50;;;;;;4977857;28;20054;-75
2022/07/13 10:25:49;;;;;;;8.55;7.70;;;31.20;68.00;;;;;;4988460;28;20042;-75
2022/07/13 10:28:18;;;;;;;7.57;6.43;;;31.10;65.80;;;;;;4991279;28;20101;-76
2022/07/13 10:30:44;;;;;;;6.55;5.32;;;30.70;67.70;;;;;;4991094;28;20074;-76
2022/07/13 10:33:18;;;;;;;5.28;4.88;;;31.00;68.30;;;;;;4988518;28;20081;-76
2022/07/13 10:35:52;;;;;;;6.57;5.93;;;31.00;68.20;;;;;;4991096;28;20393;-76
2022/07/13 10:38:22;;;;;;;7.88;5.65;;;30.80;63.50;;;;;;4974017;28;20055;-75
2022/07/13 10:40:48;;;;;;;10.05;5.93;;;30.80;63.20;;;;;;4969906;28;20042;-75
2022/07/13 10:43:16;;;;;;;6.40;5.07;;;30.80;61.60;;;;;;4980798;28;21039;-75
2022/07/13 10:45:52;;;;;;;4.60;4.30;;;30.70;61.60;;;;;;4987424;28;20054;-75
2022/07/13 10:48:24;;;;;;;6.45;4.90;;;30.70;60.50;;;;;;4972104;28;20134;-76
2022/07/13 10:50:56;;;;;;;4.47;4.18;;;30.80;60.70;;;;;;4962960;28;20751;-75
2022/07/13 10:53:43;;;;;;;5.63;5.07;;;30.90;60.00;;;;;;4988303;28;20042;-75
2022/07/13 10:56:19;;;;;;;5.70;5.13;;;31.00;59.40;;;;;;4979330;28;20062;-75
2022/07/13 10:58:46;;;;;;;4.70;4.30;;;31.10;59.80;;;;;;4971877;28;20050;-75
2022/07/13 11:01:32;;;;;;;5.43;5.03;;;31.40;59.70;;;;;;4990830;28;20049;-76
2022/07/13 11:03:57;;;;;;;6.15;4.68;;;31.40;59.50;;;;;;4970985;28;20080;-75
2022/07/13 11:06:24;;;;;;;6.40;4.88;;;31.40;57.80;;;;;;4964044;28;20088;-76
2022/07/13 11:09:11;;;;;;;10.43;5.10;;;31.30;56.50;;;;;;4964462;28;20556;-76
2022/07/13 11:11:48;;;;;;;7.35;5.25;;;31.20;55.80;;;;;;4955724;28;20402;-76
2022/07/13 11:14:32;;;;;;;;;;;31.20;56.90;;;;;;4967172;28;20054;-76
2022/07/13 11:17:11;;;;;;;12.35;5.35;;;31.10;55.10;;;;;;4944305;28;20742;-77
2022/07/13 11:19:52;;;;;;;9.07;5.45;;;30.70;55.40;;;;;;4954944;28;20047;-76
2022/07/13 11:22:19;;;;;;;6.43;5.78;;;30.80;56.80;;;;;;4954188;28;20062;-76
2022/07/13 11:25:27;;;;;;;7.65;4.45;;;30.90;58.00;;;;;;4971237;28;20051;-75
2022/07/13 11:28:22;;;;;;;5.72;5.00;;;31.00;57.70;;;;;;4970439;28;20059;-76
2022/07/13 11:30:53;;;;;;;8.48;5.25;;;31.00;55.70;;;;;;4960749;28;20035;-76
2022/07/13 11:33:19;;;;;;;5.30;4.80;;;30.80;56.70;;;;;;4956939;28;20066;-76
2022/07/13 11:35:46;;;;;;;6.70;5.95;;;30.80;57.60;;;;;;4953486;28;20058;-75
2022/07/13 11:38:13;;;;;;;;;;;30.70;56.90;;;;;;4970263;28;20043;-75
2022/07/13 11:40:39;;;;;;;6.28;5.30;;;30.80;57.80;;;;;;4970061;28;19928;-75
2022/07/13 11:43:08;;;;;;;11.30;6.05;;;30.80;58.10;;;;;;4945170;28;20039;-76
2022/07/13 11:45:34;;;;;;;6.57;5.13;;;31.00;57.20;;;;;;4979882;28;20136;-76
2022/07/13 11:48:02;;;;;;;7.40;4.70;;;31.10;56.70;;;;;;4970124;28;20101;-76
2022/07/13 11:50:50;;;;;;;5.55;5.05;;;31.20;56.60;;;;;;4966839;28;20047;-75
2022/07/13 11:53:32;;;;;;;8.35;5.40;;;30.90;55.80;;;;;;4973813;28;20078;-75
2022/07/13 11:56:04;;;;;;;6.35;5.78;;;30.70;56.00;;;;;;4969069;28;20046;-73
2022/07/13 11:58:33;;;;;;;6.93;4.97;;;30.70;57.70;;;;;;4960739;28;20054;-73
2022/07/13 12:01:00;;;;;;;9.15;5.78;;;30.70;59.00;;;;;;4963214;28;20069;-73
2022/07/13 12:03:30;;;;;;;7.18;5.22;;;30.60;59.30;;;;;;4940726;28;20042;-74
2022/07/13 12:06:03;;;;;;;7.68;4.90;;;30.50;59.60;;;;;;4969806;28;20408;-73
2022/07/13 12:08:31;;;;;;;8.07;5.07;;;30.50;59.20;;;;;;4989557;28;20046;-70
2022/07/13 12:10:56;;;;;;;;;;;30.30;58.60;;;;;;4969728;28;20046;-70
2022/07/13 12:13:22;;;;;;;5.30;4.80;;;30.20;58.50;;;;;;4989983;28;19948;-75
2022/07/13 12:15:48;;;;;;;6.38;4.40;;;30.10;60.90;;;;;;4981644;28;20118;-75
2022/07/13 12:18:14;;;;;;;6.82;4.22;;;29.90;58.80;;;;;;4971442;28;20124;-75
2022/07/13 12:20:40;;;;;;;4.53;4.10;;;29.80;58.80;;;;;;4971928;28;20061;-75
2022/07/13 12:23:09;;;;;;;4.57;4.18;;;29.70;59.10;;;;;;4988291;28;20061;-74
2022/07/13 12:25:37;;;;;;;6.15;4.15;;;29.70;60.00;;;;;;4972029;28;20065;-74
2022/07/13 12:28:04;;;;;;;;;;;29.90;61.90;;;;;;4971807;28;20063;-75
2022/07/13 12:30:31;;;;;;;4.82;4.07;;;29.80;60.40;;;;;;4989606;28;20005;-74
2022/07/13 12:32:57;;;;;;;;;;;29.90;59.90;;;;;;4970033;28;20062;-75
2022/07/13 12:35:30;;;;;;;13.90;5.22;;;29.90;60.50;;;;;;4970172;28;19922;-76
2022/07/13 12:37:58;;;;;;;5.90;4.18;;;30.00;58.60;;;;;;4968341;28;20407;-76
2022/07/13 12:40:35;;;;;;;10.27;5.38;;;30.00;58.60;;;;;;4968740;28;20086;-76
2022/07/13 12:43:01;;;;;;;7.60;4.47;;;30.00;55.10;;;;;;4969265;28;20054;-76
2022/07/13 12:45:33;;;;;;;5.07;4.57;;;29.90;57.00;;;;;;4987691;28;20092;-73
2022/07/13 12:47:59;;;;;;;5.90;4.75;;;30.00;57.30;;;;;;4975713;28;20792;-74
2022/07/13 12:50:32;;;;;;;7.30;4.57;;;29.90;56.20;;;;;;4989330;28;20133;-76
2022/07/13 12:53:02;;;;;;;4.72;4.43;;;29.70;57.20;;;;;;4989218;28;20445;-76
2022/07/13 12:55:28;;;;;;;5.68;5.10;;;29.70;59.60;;;;;;4990653;28;20081;-75
2022/07/13 12:57:53;;;;;;;6.75;4.95;;;29.50;59.50;;;;;;4972404;28;20526;-76
2022/07/13 13:00:26;;;;;;;6.70;5.00;;;29.50;60.30;;;;;;4986329;28;20077;-75
2022/07/13 13:02:55;;;;;;;5.13;4.57;;;29.60;61.30;;;;;;4989729;28;20042;-74
2022/07/13 13:05:21;;;;;;;8.63;4.68;;;29.50;61.30;;;;;;4993385;28;20046;-74
2022/07/13 13:07:47;;;;;;;5.03;4.50;;;29.40;62.00;;;;;;4978120;28;20065;-75
2022/07/13 13:10:13;;;;;;;7.35;4.85;;;29.30;61.80;;;;;;4977788;28;20546;-74
2022/07/13 13:12:39;;;;;;;12.07;6.00;;;29.40;62.80;;;;;;4993024;28;20113;-74
2022/07/13 13:15:05;;;;;;;7.43;4.97;;;29.20;64.00;;;;;;4988102;28;20615;-75
2022/07/13 13:17:31;;;;;;;5.27;4.57;;;29.20;65.30;;;;;;4981937;28;20078;-76
2022/07/13 13:19:59;;;;;;;7.45;4.80;;;29.00;66.40;;;;;;4973664;28;20073;-75
2022/07/13 13:22:24;;;;;;;11.90;5.03;;;29.20;71.60;;;;;;4991735;28;20050;-77
2022/07/13 13:24:50;;;;;;;5.97;5.10;;;29.30;70.50;;;;;;4987827;28;20397;-76
2022/07/13 13:27:16;;;;;;;6.00;4.80;;;29.30;70.90;;;;;;4980507;28;20551;-76
2022/07/13 13:32:28;;;;;;;7.50;5.55;;;29.30;71.00;;;;;;4965266;28;20112;-75
2022/07/13 13:34:53;;;;;;;10.40;4.93;;;29.30;70.20;;;;;;4985199;28;20554;-76
2022/07/13 13:37:19;;;;;;;6.13;5.53;;;29.30;70.10;;;;;;4963352;28;20125;-77
2022/07/13 13:39:45;;;;;;;6.78;6.18;;;29.40;67.10;;;;;;4980793;28;20089;-76
2022/07/13 13:42:12;;;;;;;4.90;4.50;;;29.40;66.50;;;;;;4988609;28;20054;-77
2022/07/13 13:44:37;;;;;;;6.15;5.05;;;29.30;66.90;;;;;;4966971;28;20070;-75
2022/07/13 13:47:03;;;;;;;5.97;4.20;;;29.30;67.60;;;;;;4979451;28;20173;-76
2022/07/13 13:49:29;;;;;;;8.65;5.40;;;29.30;69.00;;;;;;4970336;28;20053;-75
2022/07/13 13:51:54;;;;;;;5.97;4.63;;;29.20;66.50;;;;;;4987483;28;20157;-76
2022/07/13 13:54:20;;;;;;;7.00;5.07;;;28.90;67.10;;;;;;4986184;28;20053;-76
2022/07/13 13:56:45;;;;;;;6.60;4.88;;;28.90;71.70;;;;;;4963230;28;20499;-73
2022/07/13 13:59:12;;;;;;;5.82;4.72;;;28.80;73.20;;;;;;4963468;28;20046;-75
2022/07/13 14:01:39;;;;;;;6.50;4.70;;;28.80;70.20;;;;;;4989614;28;20499;-75
2022/07/13 14:04:05;;;;;;;6.60;4.47;;;28.60;70.80;;;;;;4960472;28;20161;-75
2022/07/13 14:06:30;;;;;;;8.18;5.15;;;28.60;70.30;;;;;;4989881;28;20188;-74